createdAt,value
2024-03-12T00:01:42.189Z,6.22
2024-03-12T00:04:09.397Z,6.32
2024-03-12T00:06:37.009Z,6.30
2024-03-12T00:09:07.783Z,6.29
2024-03-12T00:11:35.022Z,6.23
2024-03-12T00:14:01.843Z,6.21
2024-03-12T00:16:31.709Z,6.27
2024-03-12T00:19:01.728Z,6.24
2024-03-12T00:21:28.486Z,6.12
2024-03-12T00:23:55.575Z,6.07
2024-03-12T00:26:22.625Z,6.30
2024-03-12T00:28:49.306Z,6.29
2024-03-12T00:31:17.777Z,6.29
2024-03-12T00:33:48.438Z,6.27
2024-03-12T00:36:15.346Z,6.19
2024-03-12T00:38:42.771Z,6.21
2024-03-12T00:41:09.427Z,6.22
2024-03-12T00:43:37.053Z,6.09
2024-03-12T00:46:08.530Z,6.21
2024-03-12T00:48:35.294Z,6.19
2024-03-12T00:51:01.994Z,6.20
2024-03-12T00:53:28.624Z,6.29
2024-03-12T00:55:55.205Z,6.23
2024-03-12T00:58:22.286Z,6.19
2024-03-12T01:00:50.721Z,6.26
2024-03-12T01:03:18.374Z,6.17
2024-03-12T01:05:45.273Z,6.26
2024-03-12T01:08:13.170Z,6.27
2024-03-12T01:10:40.690Z,6.29
2024-03-12T01:13:10.422Z,6.28
2024-03-12T01:15:38.007Z,6.19
2024-03-12T01:18:05.225Z,6.12
2024-03-12T01:20:35.654Z,6.19
2024-03-12T01:23:03.109Z,6.30
2024-03-12T01:25:35.788Z,6.28
2024-03-12T01:28:03.056Z,6.18
2024-03-12T01:30:31.751Z,6.14
2024-03-12T01:33:03.555Z,6.29
2024-03-12T01:35:31.797Z,6.26
2024-03-12T01:37:58.788Z,6.20
2024-03-12T01:40:31.318Z,6.29
2024-03-12T01:43:04.486Z,6.31
2024-03-12T01:45:34.309Z,6.23
2024-03-12T01:48:08.130Z,6.26
2024-03-12T01:50:36.820Z,6.34
2024-03-12T01:53:08.436Z,6.34
2024-03-12T01:55:43.394Z,6.24
2024-03-12T01:58:11.285Z,6.38
2024-03-12T02:00:39.298Z,6.28
2024-03-12T02:03:06.151Z,6.36
2024-03-12T02:05:32.734Z,6.38
2024-03-12T02:07:59.339Z,6.36
2024-03-12T02:10:28.899Z,6.36
2024-03-12T02:12:55.620Z,6.39
2024-03-12T02:15:22.428Z,6.27
2024-03-12T02:17:53.535Z,6.42
2024-03-12T02:20:22.566Z,6.42
2024-03-12T02:22:54.447Z,6.37
2024-03-12T02:25:24.289Z,6.40
2024-03-12T02:27:52.118Z,6.46
2024-03-12T02:30:21.205Z,6.47
2024-03-12T02:32:48.734Z,6.42
2024-03-12T02:35:16.998Z,6.46
2024-03-12T02:37:44.074Z,6.47
2024-03-12T02:40:14.728Z,6.33
2024-03-12T02:42:42.760Z,6.44
2024-03-12T02:45:13.115Z,6.39
2024-03-12T02:47:39.835Z,6.46
2024-03-12T02:50:07.657Z,6.44
2024-03-12T02:52:34.432Z,6.30
2024-03-12T02:55:02.087Z,6.42
2024-03-12T02:57:28.846Z,6.46
2024-03-12T02:59:55.508Z,6.38
2024-03-12T03:02:22.766Z,6.39
2024-03-12T03:04:49.386Z,6.41
2024-03-12T03:07:17.938Z,6.49
2024-03-12T03:09:45.517Z,6.45
2024-03-12T03:12:12.652Z,6.42
2024-03-12T03:14:39.319Z,6.46
2024-03-12T03:17:08.581Z,6.37
2024-03-12T03:19:35.341Z,6.39
2024-03-12T03:22:04.137Z,6.41
2024-03-12T03:24:30.829Z,6.32
2024-03-12T03:26:58.540Z,6.41
2024-03-12T03:29:32.361Z,6.21
2024-03-12T03:32:03.826Z,6.35
2024-03-12T03:34:32.449Z,6.44
2024-03-12T03:37:00.118Z,6.46
2024-03-12T03:39:30.110Z,6.40
2024-03-12T03:41:57.098Z,6.41
2024-03-12T03:44:24.392Z,6.39
2024-03-12T03:46:51.487Z,6.43
2024-03-12T03:49:18.184Z,6.18
2024-03-12T03:51:44.861Z,6.38
2024-03-12T03:54:11.836Z,6.41
2024-03-12T03:56:38.930Z,6.39
2024-03-12T03:59:06.894Z,6.30
2024-03-12T04:01:34.736Z,6.44
2024-03-12T04:04:11.902Z,6.40
2024-03-12T04:06:39.070Z,6.34
2024-03-12T04:09:06.268Z,6.41
2024-03-12T04:11:35.029Z,6.38
2024-03-12T04:14:03.576Z,6.42
2024-03-12T04:16:33.095Z,6.39
2024-03-12T04:19:02.568Z,6.30
2024-03-12T04:21:29.270Z,6.39
2024-03-12T04:23:56.573Z,6.39
2024-03-12T04:26:23.474Z,6.37
2024-03-12T04:28:50.261Z,6.31
2024-03-12T04:31:16.933Z,6.31
2024-03-12T04:33:43.759Z,6.34
2024-03-12T04:36:15.070Z,6.29
2024-03-12T04:38:45.121Z,6.24
2024-03-12T04:41:11.724Z,6.23
2024-03-12T04:43:38.342Z,6.27
2024-03-12T04:46:05.387Z,6.30
2024-03-12T04:48:32.267Z,6.29
2024-03-12T04:50:59.072Z,6.07
2024-03-12T04:53:26.609Z,6.30
2024-03-12T04:55:53.330Z,6.00
2024-03-12T04:58:19.942Z,6.12
2024-03-12T05:00:46.765Z,6.31
2024-03-12T05:03:14.083Z,6.29
2024-03-12T05:05:41.590Z,6.26
2024-03-12T05:08:09.176Z,6.26
2024-03-12T05:10:37.657Z,6.19
2024-03-12T05:13:04.737Z,6.25
2024-03-12T05:15:32.147Z,6.24
2024-03-12T05:17:59.035Z,6.18
2024-03-12T05:20:26.736Z,6.24
2024-03-12T05:22:54.881Z,6.19
2024-03-12T05:25:25.533Z,6.20
2024-03-12T05:27:52.515Z,6.21
2024-03-12T05:30:21.909Z,6.22
2024-03-12T05:32:50.144Z,6.19
2024-03-12T05:35:30.993Z,6.14
2024-03-12T05:38:05.038Z,6.16
2024-03-12T05:40:52.605Z,6.15
2024-03-12T05:43:37.787Z,6.22
2024-03-12T05:46:23.173Z,6.12
2024-03-12T05:48:51.832Z,6.20
2024-03-12T05:51:22.995Z,6.11
2024-03-12T05:53:50.097Z,6.08
2024-03-12T05:56:19.091Z,6.05
2024-03-12T05:58:47.196Z,6.08
2024-03-12T06:01:14.589Z,6.18
2024-03-12T06:03:41.462Z,6.15
2024-03-12T06:06:11.415Z,6.11
2024-03-12T06:08:38.065Z,6.16
2024-03-12T06:11:04.872Z,6.02
2024-03-12T06:13:32.045Z,6.03
2024-03-12T06:15:59.025Z,6.13
2024-03-12T06:18:29.665Z,6.06
2024-03-12T06:20:56.549Z,6.09
2024-03-12T06:23:24.445Z,6.08
2024-03-12T06:25:51.406Z,6.09
2024-03-12T06:28:23.011Z,6.08
2024-03-12T06:30:49.952Z,6.06
2024-03-12T06:33:19.266Z,5.92
2024-03-12T06:35:49.608Z,6.01
2024-03-12T06:38:17.052Z,5.99
2024-03-12T06:40:44.437Z,6.05
2024-03-12T06:43:14.825Z,5.64
2024-03-12T06:45:44.468Z,5.89
2024-03-12T06:48:12.082Z,6.08
2024-03-12T06:50:38.740Z,5.97
2024-03-12T06:53:06.720Z,5.90
2024-03-12T06:55:33.494Z,5.93
2024-03-12T06:58:11.199Z,6.03
2024-03-12T07:00:39.162Z,6.06
2024-03-12T07:03:06.393Z,6.10
2024-03-12T07:05:44.736Z,6.12
2024-03-12T07:08:11.651Z,6.11
2024-03-12T07:10:41.796Z,5.96
2024-03-12T07:13:09.309Z,6.09
2024-03-12T07:15:42.264Z,6.08
2024-03-12T07:18:09.352Z,5.99
2024-03-12T07:20:36.382Z,6.12
2024-03-12T07:23:04.201Z,6.13
2024-03-12T07:25:33.701Z,6.02
2024-03-12T07:28:02.744Z,6.07
2024-03-12T07:30:30.760Z,6.12
2024-03-12T07:32:58.481Z,5.96
2024-03-12T07:35:25.262Z,6.10
2024-03-12T07:37:52.209Z,6.06
2024-03-12T07:40:20.095Z,5.95
2024-03-12T07:42:46.971Z,6.03
2024-03-12T07:45:16.166Z,6.14
2024-03-12T07:47:43.193Z,6.14
2024-03-12T07:50:12.419Z,6.17
2024-03-12T07:52:39.136Z,5.98
2024-03-12T07:55:07.278Z,6.16
2024-03-12T07:57:34.322Z,6.20
2024-03-12T08:00:01.238Z,6.15
2024-03-12T08:02:28.204Z,6.16
2024-03-12T08:04:54.858Z,6.15
2024-03-12T08:07:21.569Z,6.19
2024-03-12T08:09:51.495Z,6.12
2024-03-12T08:12:18.435Z,6.26
2024-03-12T08:14:45.871Z,6.12
2024-03-12T08:17:16.408Z,6.28
2024-03-12T08:19:49.403Z,6.33
2024-03-12T08:22:16.399Z,6.27
2024-03-12T08:24:45.192Z,6.32
2024-03-12T08:27:12.297Z,6.34
2024-03-12T08:29:38.939Z,6.29
2024-03-12T08:32:05.962Z,6.36
2024-03-12T08:34:32.698Z,6.33
2024-03-12T08:36:59.480Z,6.37
2024-03-12T08:39:29.626Z,6.22
2024-03-12T08:41:56.851Z,6.35
2024-03-12T08:44:23.868Z,6.44
2024-03-12T08:46:53.319Z,6.31
2024-03-12T08:49:19.989Z,6.46
2024-03-12T08:51:46.835Z,6.58
2024-03-12T08:54:15.431Z,6.47
2024-03-12T08:56:44.011Z,6.40
2024-03-12T08:59:15.153Z,6.44
2024-03-12T09:01:42.194Z,6.57
2024-03-12T09:04:09.464Z,6.62
2024-03-12T09:06:36.475Z,6.69
2024-03-12T09:09:03.708Z,6.72
2024-03-12T09:11:30.575Z,6.58
2024-03-12T09:13:57.482Z,6.75
2024-03-12T09:16:24.669Z,6.81
2024-03-12T09:18:51.803Z,6.66
2024-03-12T09:21:19.703Z,6.82
2024-03-12T09:23:53.537Z,6.78
2024-03-12T09:26:29.380Z,6.62
2024-03-12T09:28:56.575Z,6.79
2024-03-12T09:31:23.462Z,6.82
2024-03-12T09:33:52.100Z,6.81
2024-03-12T09:36:18.830Z,6.70
2024-03-12T09:38:47.858Z,6.91
2024-03-12T09:41:17.568Z,6.87
2024-03-12T09:43:45.555Z,6.89
2024-03-12T09:46:13.371Z,6.78
2024-03-12T09:48:40.854Z,6.74
2024-03-12T09:51:09.612Z,6.85
2024-03-12T09:53:37.845Z,6.79
2024-03-12T09:56:07.798Z,6.79
2024-03-12T09:58:38.030Z,6.80
2024-03-12T10:01:05.265Z,6.82
2024-03-12T10:03:32.770Z,6.86
2024-03-12T10:06:03.739Z,6.86
2024-03-12T10:08:30.616Z,6.88
2024-03-12T10:10:58.139Z,6.77
2024-03-12T10:13:25.314Z,6.94
2024-03-12T10:15:53.867Z,6.89
2024-03-12T10:18:22.334Z,6.95
2024-03-12T10:20:57.247Z,6.95
2024-03-12T10:23:26.802Z,6.96
2024-03-12T10:25:54.828Z,6.88
2024-03-12T10:28:28.867Z,6.91
2024-03-12T10:31:10.065Z,6.90
2024-03-12T10:33:38.992Z,6.89
2024-03-12T10:36:06.222Z,6.86
2024-03-12T10:38:36.656Z,6.78
2024-03-12T10:41:22.682Z,7.07
2024-03-12T10:43:56.563Z,7.01
2024-03-12T10:46:25.110Z,7.07
2024-03-12T10:48:52.389Z,7.30
2024-03-12T10:51:20.544Z,7.35
2024-03-12T10:53:54.733Z,7.45
2024-03-12T10:56:23.035Z,7.54
2024-03-12T10:58:50.426Z,7.60
2024-03-12T11:01:21.038Z,7.64
2024-03-12T11:03:51.316Z,7.46
2024-03-12T11:06:21.902Z,7.57
2024-03-12T11:08:49.576Z,7.58
2024-03-12T11:11:19.728Z,7.83
2024-03-12T11:13:47.099Z,7.92
2024-03-12T11:16:19.061Z,8.04
2024-03-12T11:18:46.878Z,8.08
2024-03-12T11:21:17.964Z,7.98
2024-03-12T11:23:46.620Z,8.08
2024-03-12T11:26:15.882Z,7.96
2024-03-12T11:28:50.703Z,8.23
2024-03-12T11:31:21.048Z,8.19
2024-03-12T11:33:55.455Z,8.10
2024-03-12T11:36:25.390Z,7.99
2024-03-12T11:38:53.203Z,7.97
2024-03-12T11:41:20.583Z,8.02
2024-03-12T11:43:47.536Z,8.03
2024-03-12T11:46:22.070Z,8.19
2024-03-12T11:48:49.840Z,8.29
2024-03-12T11:51:16.767Z,8.48
2024-03-12T11:53:46.415Z,8.64
2024-03-12T11:56:19.671Z,8.74
2024-03-12T11:58:57.584Z,8.76
2024-03-12T12:01:33.543Z,8.71
2024-03-12T12:04:12.189Z,8.61
2024-03-12T12:06:39.022Z,8.49
2024-03-12T12:09:09.436Z,8.62
2024-03-12T12:11:38.702Z,8.46
2024-03-12T12:14:07.638Z,8.36
2024-03-12T12:16:34.347Z,8.02
2024-03-12T12:19:12.069Z,8.43
2024-03-12T12:21:44.211Z,8.51
2024-03-12T12:24:12.348Z,8.61
2024-03-12T12:26:39.908Z,8.65
2024-03-12T12:29:09.061Z,8.53
2024-03-12T12:31:37.836Z,8.46
2024-03-12T12:34:06.904Z,8.39
2024-03-12T12:36:36.781Z,7.99
2024-03-12T12:39:05.879Z,8.22
2024-03-12T12:41:47.007Z,8.29
2024-03-12T12:44:18.450Z,8.38
2024-03-12T12:46:48.605Z,8.37
2024-03-12T12:49:16.388Z,8.59
2024-03-12T12:51:46.842Z,8.72
2024-03-12T12:54:16.571Z,8.73
2024-03-12T12:56:45.416Z,8.65
2024-03-12T12:59:16.666Z,8.61
2024-03-12T13:01:44.575Z,8.66
2024-03-12T13:04:28.289Z,8.72
2024-03-12T13:06:58.065Z,8.56
2024-03-12T13:09:33.287Z,8.66
2024-03-12T13:12:01.201Z,8.81
2024-03-12T13:14:27.948Z,9.04
2024-03-12T13:16:55.128Z,9.36
2024-03-12T13:19:23.922Z,9.29
2024-03-12T13:21:51.539Z,9.39
2024-03-12T13:24:20.747Z,9.34
2024-03-12T13:26:48.443Z,9.44
2024-03-12T13:29:16.673Z,9.32
2024-03-12T13:31:44.254Z,9.18
2024-03-12T13:34:11.121Z,8.87
2024-03-12T13:36:41.770Z,8.68
2024-03-12T13:39:08.573Z,9.14
2024-03-12T13:41:36.168Z,9.31
2024-03-12T13:44:03.130Z,9.52
2024-03-12T13:46:29.947Z,9.63
2024-03-12T13:49:12.137Z,9.73
2024-03-12T13:51:39.275Z,9.77
2024-03-12T13:54:09.461Z,9.73
2024-03-12T13:56:37.784Z,9.84
2024-03-12T13:59:05.452Z,9.89
2024-03-12T14:01:36.049Z,9.77
2024-03-12T14:04:03.093Z,9.68
2024-03-12T14:06:31.653Z,9.61
2024-03-12T14:08:58.632Z,9.57
2024-03-12T14:11:28.085Z,9.65
2024-03-12T14:13:58.939Z,9.65
2024-03-12T14:16:25.874Z,9.49
2024-03-12T14:18:53.533Z,9.66
2024-03-12T14:21:20.584Z,9.57
2024-03-12T14:23:48.752Z,9.46
2024-03-12T14:26:17.971Z,9.49
2024-03-12T14:28:45.399Z,9.39
2024-03-12T14:31:15.581Z,9.45
2024-03-12T14:33:43.032Z,9.34
2024-03-12T14:36:10.032Z,9.23
2024-03-12T14:38:36.679Z,9.22
2024-03-12T14:41:03.568Z,9.23
2024-03-12T14:43:31.763Z,9.21
2024-03-12T14:45:58.460Z,8.93
2024-03-12T14:48:25.219Z,9.28
2024-03-12T14:50:52.886Z,9.23
2024-03-12T14:53:19.505Z,9.26
2024-03-12T14:55:46.505Z,9.43
2024-03-12T14:58:13.325Z,9.38
2024-03-12T15:00:40.749Z,9.54
2024-03-12T15:03:07.655Z,9.66
2024-03-12T15:05:37.101Z,9.68
2024-03-12T15:08:11.320Z,9.48
2024-03-12T15:10:38.239Z,9.63
2024-03-12T15:13:05.403Z,9.44
2024-03-12T15:15:32.048Z,9.60
2024-03-12T15:17:58.666Z,9.47
2024-03-12T15:20:25.491Z,9.49
2024-03-12T15:22:57.899Z,9.51
2024-03-12T15:25:25.130Z,9.65
2024-03-12T15:27:52.068Z,9.61
2024-03-12T15:30:19.011Z,9.70
2024-03-12T15:32:47.021Z,9.74
2024-03-12T15:35:15.278Z,9.91
2024-03-12T15:37:45.321Z,9.79
2024-03-12T15:40:13.946Z,9.89
2024-03-12T15:42:45.143Z,9.83
2024-03-12T15:45:13.617Z,9.94
2024-03-12T15:47:40.896Z,9.87
2024-03-12T15:50:08.739Z,9.54
2024-03-12T15:52:35.671Z,9.74
2024-03-12T15:55:05.588Z,9.54
2024-03-12T15:57:32.371Z,9.51
2024-03-12T15:59:59.063Z,9.52
2024-03-12T16:02:25.868Z,9.38
2024-03-12T16:04:52.726Z,9.41
2024-03-12T16:07:33.816Z,9.21
2024-03-12T16:10:06.417Z,8.60
2024-03-12T16:12:35.941Z,9.00
2024-03-12T16:15:06.824Z,8.69
2024-03-12T16:17:36.006Z,8.98
2024-03-12T16:20:20.394Z,9.12
2024-03-12T16:22:47.298Z,9.18
2024-03-12T16:25:16.920Z,9.08
2024-03-12T16:27:44.468Z,9.00
2024-03-12T16:30:15.162Z,9.00
2024-03-12T16:32:42.740Z,8.90
2024-03-12T16:35:09.672Z,8.97
2024-03-12T16:37:39.733Z,8.99
2024-03-12T16:40:08.493Z,8.70
2024-03-12T16:42:35.876Z,8.84
2024-03-12T16:45:06.615Z,8.84
2024-03-12T16:47:33.804Z,8.74
2024-03-12T16:50:02.115Z,8.88
2024-03-12T16:52:28.802Z,8.36
2024-03-12T16:54:56.000Z,8.71
2024-03-12T16:57:23.014Z,8.82
2024-03-12T16:59:56.895Z,8.68
2024-03-12T17:02:30.499Z,8.62
2024-03-12T17:05:00.161Z,8.42
2024-03-12T17:07:30.736Z,8.52
2024-03-12T17:09:59.721Z,8.48
2024-03-12T17:12:26.817Z,8.47
2024-03-12T17:14:53.718Z,8.44
2024-03-12T17:17:24.775Z,8.39
2024-03-12T17:19:55.232Z,8.41
2024-03-12T17:22:22.297Z,8.20
2024-03-12T17:24:50.536Z,8.37
2024-03-12T17:27:17.312Z,8.23
2024-03-12T17:29:44.556Z,8.36
2024-03-12T17:32:11.899Z,8.35
2024-03-12T17:34:39.504Z,8.19
2024-03-12T17:37:07.954Z,8.11
2024-03-12T17:39:37.219Z,8.31
2024-03-12T17:42:04.364Z,8.23
2024-03-12T17:44:31.299Z,8.27
2024-03-12T17:47:01.534Z,8.23
2024-03-12T17:49:45.409Z,8.27
2024-03-12T17:52:12.696Z,8.22
2024-03-12T17:54:39.798Z,8.11
2024-03-12T17:57:11.603Z,8.18
2024-03-12T17:59:41.030Z,8.18
2024-03-12T18:02:13.524Z,7.97
2024-03-12T18:04:41.723Z,8.14
2024-03-12T18:07:24.489Z,8.18
2024-03-12T18:09:58.106Z,8.05
2024-03-12T18:12:25.000Z,8.09
2024-03-12T18:14:51.700Z,7.95
2024-03-12T18:17:19.591Z,8.18
2024-03-12T18:19:46.447Z,8.08
2024-03-12T18:22:14.698Z,7.99
2024-03-12T18:24:41.717Z,8.12
2024-03-12T18:27:08.779Z,8.07
2024-03-12T18:29:35.468Z,8.16
2024-03-12T18:32:03.828Z,8.15
2024-03-12T18:34:31.008Z,8.19
2024-03-12T18:36:59.692Z,8.00
2024-03-12T18:39:26.420Z,8.01
2024-03-12T18:41:55.754Z,8.08
2024-03-12T18:44:25.603Z,7.94
2024-03-12T18:46:53.757Z,7.90
2024-03-12T18:49:20.870Z,7.84
2024-03-12T18:51:47.869Z,7.81
2024-03-12T18:54:15.826Z,7.71
2024-03-12T18:56:43.819Z,7.84
2024-03-12T18:59:13.638Z,7.73
2024-03-12T19:01:43.274Z,7.82
2024-03-12T19:04:13.690Z,7.55
2024-03-12T19:06:42.807Z,7.71
2024-03-12T19:09:11.956Z,7.57
2024-03-12T19:11:39.039Z,7.73
2024-03-12T19:14:06.037Z,7.58
2024-03-12T19:16:36.566Z,7.71
2024-03-12T19:19:04.449Z,7.66
2024-03-12T19:21:31.556Z,7.67
2024-03-12T19:23:58.478Z,7.20
2024-03-12T19:26:25.331Z,7.63
2024-03-12T19:28:53.310Z,7.50
2024-03-12T19:31:20.652Z,7.63
2024-03-12T19:33:47.595Z,7.53
2024-03-12T19:36:22.981Z,7.56
2024-03-12T19:38:49.907Z,7.65
2024-03-12T19:41:18.148Z,7.68
2024-03-12T19:43:45.518Z,7.65
2024-03-12T19:46:13.131Z,7.47
2024-03-12T19:48:40.235Z,7.49
2024-03-12T19:51:07.949Z,7.44
2024-03-12T19:53:35.559Z,7.65
2024-03-12T19:56:02.498Z,7.73
2024-03-12T19:58:30.734Z,7.53
2024-03-12T20:00:58.878Z,7.44
2024-03-12T20:03:26.968Z,7.75
2024-03-12T20:05:57.503Z,7.72
2024-03-12T20:08:24.398Z,7.52
2024-03-12T20:10:51.170Z,7.47
2024-03-12T20:13:17.909Z,7.56
2024-03-12T20:15:46.704Z,7.71
2024-03-12T20:18:14.763Z,7.54
2024-03-12T20:20:44.073Z,7.57
2024-03-12T20:23:11.803Z,7.59
2024-03-12T20:25:38.781Z,7.76
2024-03-12T20:28:10.506Z,7.75
2024-03-12T20:30:39.499Z,7.76
2024-03-12T20:33:09.558Z,7.79
2024-03-12T20:35:38.844Z,7.74
2024-03-12T20:38:08.093Z,7.72
2024-03-12T20:40:34.892Z,7.74
2024-03-12T20:43:01.676Z,7.73
2024-03-12T20:45:28.785Z,7.71
2024-03-12T20:47:55.958Z,7.74
2024-03-12T20:50:22.775Z,7.80
2024-03-12T20:52:50.214Z,7.71
2024-03-12T20:55:17.476Z,7.76
2024-03-12T20:57:48.226Z,7.69
2024-03-12T21:00:24.823Z,7.64
2024-03-12T21:02:53.272Z,7.72
2024-03-12T21:05:20.387Z,7.78
2024-03-12T21:07:47.055Z,7.70
2024-03-12T21:10:13.843Z,7.62
2024-03-12T21:12:43.322Z,7.64
2024-03-12T21:15:10.226Z,7.69
2024-03-12T21:17:37.030Z,7.75
2024-03-12T21:20:15.209Z,7.63
2024-03-12T21:22:42.817Z,7.79
2024-03-12T21:25:11.530Z,7.61
2024-03-12T21:27:38.604Z,7.74
2024-03-12T21:30:10.290Z,7.78
2024-03-12T21:32:37.179Z,7.65
2024-03-12T21:35:06.296Z,7.80
2024-03-12T21:37:33.268Z,7.81
2024-03-12T21:40:00.838Z,7.82
2024-03-12T21:42:27.572Z,7.84
2024-03-12T21:44:54.206Z,7.84
2024-03-12T21:47:21.661Z,7.83
2024-03-12T21:49:48.426Z,7.66
2024-03-12T21:52:17.105Z,7.88
2024-03-12T21:54:47.556Z,7.76
2024-03-12T21:57:14.251Z,7.78
2024-03-12T21:59:41.022Z,7.76
2024-03-12T22:02:07.954Z,7.67
2024-03-12T22:04:34.714Z,7.79
2024-03-12T22:07:06.103Z,7.77
2024-03-12T22:09:34.614Z,7.81
2024-03-12T22:12:01.263Z,7.78
2024-03-12T22:14:29.385Z,7.79
2024-03-12T22:16:55.988Z,7.75
2024-03-12T22:19:22.708Z,7.74
2024-03-12T22:21:49.909Z,7.55
2024-03-12T22:24:23.926Z,7.81
2024-03-12T22:26:54.338Z,7.79
2024-03-12T22:29:21.136Z,7.72
2024-03-12T22:31:47.796Z,7.66
2024-03-12T22:34:15.967Z,7.74
2024-03-12T22:36:45.305Z,7.55
2024-03-12T22:39:14.250Z,7.72
2024-03-12T22:41:48.950Z,7.76
2024-03-12T22:44:16.302Z,7.78
2024-03-12T22:46:45.493Z,7.62
2024-03-12T22:49:12.622Z,7.74
2024-03-12T22:51:41.437Z,7.72
2024-03-12T22:54:10.671Z,7.71
2024-03-12T22:56:37.587Z,7.78
2024-03-12T22:59:05.346Z,7.78
2024-03-12T23:01:34.676Z,7.71
2024-03-12T23:04:03.382Z,7.76
2024-03-12T23:06:32.409Z,7.76
2024-03-12T23:08:59.229Z,7.67
2024-03-12T23:11:28.262Z,7.69
2024-03-12T23:13:54.944Z,7.70
2024-03-12T23:16:21.620Z,7.83
2024-03-12T23:18:49.551Z,7.64
2024-03-12T23:21:18.284Z,7.72
2024-03-12T23:23:48.230Z,7.72
2024-03-12T23:32:22.871Z,7.24
2024-03-12T23:34:49.531Z,7.79
2024-03-12T23:37:16.317Z,7.60
2024-03-12T23:39:43.981Z,7.76
2024-03-12T23:42:13.588Z,7.76
2024-03-12T23:44:41.146Z,7.67
2024-03-12T23:47:07.838Z,7.71
2024-03-12T23:49:37.416Z,7.80
2024-03-12T23:52:06.135Z,7.78
2024-03-12T23:54:32.836Z,7.77
2024-03-12T23:56:59.510Z,7.74
2024-03-12T23:59:26.191Z,7.72
